THY2TK FSIA-FMCH
Flight info
| Callsign | THY2TK |
|---|---|
| Flight time | N/A |
| Altitude | 38000 |
| Route | IMPOX1A IMPOX DCT MIRON/N0479F390 UN305 BERIL/N0476F380 UN305 VOHID VOHID1V |
| Aircraft | B77W/H-SDE1E2E3FGHIJ2J3J4J5M1RWXY/LB1D1 |
Departure
| Time | N/A |
|---|---|
| Airport | Seychelles International Airport (FSIA) |
Arrival
| Time | 2026-05-03 20:15 |
|---|---|
| Airport | Prince Said Ibrahim International Airport (FMCH) |
| Time | Latitude | Longitude | Altitude | Speed | Heading |
|---|---|---|---|---|---|
| 2026-05-03 20:15 | -11.52112 | 43.27417 | 78 ft | 3 kts | 223° |
| 2026-05-03 20:15 | -11.52142 | 43.27410 | 78 ft | 6 kts | 192° |
| 2026-05-03 20:15 | -11.52187 | 43.27400 | 75 ft | 8 kts | 192° |
| 2026-05-03 20:15 | -11.52247 | 43.27388 | 75 ft | 10 kts | 190° |
| 2026-05-03 20:16 | -11.52320 | 43.27376 | 74 ft | 11 kts | 189° |
| 2026-05-03 20:16 | -11.52401 | 43.27362 | 69 ft | 12 kts | 189° |
| 2026-05-03 20:16 | -11.52487 | 43.27348 | 71 ft | 12 kts | 189° |
| 2026-05-03 20:16 | -11.52572 | 43.27333 | 73 ft | 12 kts | 189° |
| 2026-05-03 20:17 | -11.52658 | 43.27319 | 70 ft | 12 kts | 190° |
| 2026-05-03 20:17 | -11.52743 | 43.27304 | 73 ft | 12 kts | 190° |
| 2026-05-03 20:17 | -11.52843 | 43.27286 | 74 ft | 18 kts | 190° |
| 2026-05-03 20:17 | -11.52985 | 43.27260 | 73 ft | 23 kts | 190° |
| 2026-05-03 20:18 | -11.53140 | 43.27231 | 70 ft | 23 kts | 190° |
| 2026-05-03 20:18 | -11.53295 | 43.27204 | 70 ft | 23 kts | 189° |
| 2026-05-03 20:18 | -11.53450 | 43.27177 | 67 ft | 23 kts | 189° |
| 2026-05-03 20:18 | -11.53592 | 43.27152 | 64 ft | 15 kts | 189° |
| 2026-05-03 20:19 | -11.53662 | 43.27216 | 64 ft | 15 kts | 107° |
| 2026-05-03 20:19 | -11.53679 | 43.27305 | 66 ft | 11 kts | 95° |
| 2026-05-03 20:19 | -11.53647 | 43.27371 | 64 ft | 11 kts | 28° |
| 2026-05-03 20:19 | -11.53583 | 43.27403 | 67 ft | 3 kts | 43° |
| 2026-05-03 20:20 | -11.53578 | 43.27413 | 67 ft | 2 kts | 64° |
| 2026-05-03 20:20 | -11.53573 | 43.27431 | 66 ft | 3 kts | 81° |
| 2026-05-03 20:20 | -11.53573 | 43.27437 | 66 ft | 0 kts | 87° |